Time;durP1;ratioP1;P1;durP2;ratioP2;P2;SDS_P1;SDS_P2;PMS_P1;PMS_P2;Temp;Humidity;BMP_temperature;BMP_pressure;BME280_temperature;BME280_humidity;BME280_pressure;Samples;Min_cycle;Max_cycle;Signal;HPM_P1;HPM_P2
2021/08/10 05:29:40;;;;;;;67.32;28.95;;;;;;;24.29;59.70;99623.13;5013964;23;19991;-90
2021/08/10 05:32:07;;;;;;;108.43;30.65;;;;;;;24.21;60.46;99606.78;4960709;28;20046;-93
2021/08/10 05:34:34;;;;;;;180.85;36.78;;;;;;;24.22;61.06;99606.38;4976423;28;20052;-89
2021/08/10 05:37:03;;;;;;;152.25;34.08;;;;;;;24.18;62.03;99611.16;4975512;28;20042;-87
2021/08/10 05:39:32;;;;;;;134.25;33.25;;;;;;;24.13;61.11;99601.16;4975519;28;20514;-87
2021/08/10 05:42:00;;;;;;;100.22;32.83;;;;;;;23.97;61.14;99575.59;4959645;28;20040;-90
2021/08/10 05:44:27;;;;;;;117.50;34.78;;;;;;;23.70;60.95;99538.88;4975555;28;20106;-88
2021/08/10 05:46:55;;;;;;;79.13;28.92;;;;;;;24.00;59.55;99583.19;4955596;28;20092;-88
2021/08/10 05:49:23;;;;;;;87.82;28.83;;;;;;;24.22;61.14;99605.56;4943469;28;20046;-87
2021/08/10 05:51:51;;;;;;;106.93;32.08;;;;;;;24.18;60.86;99579.63;4975374;28;20046;-86
2021/08/10 05:54:18;;;;;;;94.22;29.60;;;;;;;24.29;60.12;99591.59;4974934;28;20046;-90
2021/08/10 05:56:49;;;;;;;89.78;31.08;;;;;;;24.37;60.29;99604.38;4959510;28;20035;-89
2021/08/10 05:59:19;;;;;;;84.65;30.20;;;;;;;24.58;60.82;99625.97;4960136;28;20030;-87
2021/08/10 06:01:48;;;;;;;102.00;31.27;;;;;;;24.63;60.47;99619.16;4980656;28;20055;-82
2021/08/10 06:04:14;;;;;;;133.95;30.15;;;;;;;24.66;60.26;99618.38;4973599;28;20133;-77
2021/08/10 06:06:41;;;;;;;101.15;29.05;;;;;;;24.70;59.65;99607.97;4974840;28;20045;-80
2021/08/10 06:09:07;;;;;;;105.28;26.55;;;;;;;24.83;60.04;99621.16;4974887;28;20042;-83
2021/08/10 06:11:34;;;;;;;71.55;24.90;;;;;;;24.88;58.88;99622.72;4989708;28;20034;-76
2021/08/10 06:14:04;;;;;;;95.57;28.40;;;;;;;24.91;58.84;99613.53;4990587;28;20048;-90
2021/08/10 06:16:33;;;;;;;78.70;25.35;;;;;;;25.01;59.46;99618.31;4975464;28;20039;-82
2021/08/10 06:19:06;;;;;;;53.92;23.25;;;;;;;25.06;58.08;99614.28;4974707;28;20038;-75
2021/08/10 06:21:32;;;;;;;86.50;24.75;;;;;;;25.09;58.38;99605.88;4989145;28;20046;-75
2021/08/10 06:24:00;;;;;;;56.55;22.55;;;;;;;25.25;59.00;99613.84;4991875;28;20030;-87
2021/08/10 06:26:27;;;;;;;65.97;25.35;;;;;;;25.43;57.51;99632.56;4975270;28;20058;-76
2021/08/10 06:28:54;;;;;;;61.35;25.65;;;;;;;25.51;57.11;99626.56;5004969;28;20045;-76
2021/08/10 06:31:20;;;;;;;62.03;25.23;;;;;;;25.58;57.80;99619.34;4994840;28;20041;-77
2021/08/10 06:33:46;;;;;;;;;;;;;;;25.74;57.08;99630.84;5012394;28;20045;-76
2021/08/10 06:36:20;;;;;;;65.65;24.95;;;;;;;25.72;56.37;99613.66;4994533;28;19921;-75
2021/08/10 06:38:46;;;;;;;;;;;;;;;25.80;55.88;99625.63;5012264;28;20037;-76
2021/08/10 06:41:12;;;;;;;63.47;21.75;;;;;;;25.81;55.96;99627.25;4994382;28;19929;-83
2021/08/10 06:43:54;;;;;;;56.22;20.67;;;;;;;25.74;55.47;99619.66;4994087;28;20569;-76
2021/08/10 06:46:25;;;;;;;47.83;22.15;;;;;;;25.81;56.49;99628.03;4993568;28;20045;-75
2021/08/10 06:48:52;;;;;;;43.72;18.55;;;;;;;25.84;54.73;99634.81;5011973;28;20045;-75
2021/08/10 06:51:24;;;;;;;47.90;19.27;;;;;;;25.80;55.34;99634.84;4990995;28;20577;-76
2021/08/10 06:53:51;;;;;;;46.78;20.85;;;;;;;25.81;56.32;99641.25;5011227;28;20064;-77
2021/08/10 06:56:17;;;;;;;51.25;20.25;;;;;;;25.87;55.44;99632.00;4993776;28;20042;-76
2021/08/10 06:58:44;;;;;;;69.47;20.75;;;;;;;25.96;54.97;99634.34;5011866;28;20046;-75
2021/08/10 07:01:10;;;;;;;83.18;21.65;;;;;;;26.02;54.17;99632.69;4994325;28;20088;-76
2021/08/10 07:03:39;;;;;;;68.35;22.13;;;;;;;26.07;54.57;99639.88;5011156;28;20046;-78
2021/08/10 07:06:05;;;;;;;62.42;23.10;;;;;;;26.04;55.30;99621.09;5010844;28;20117;-77
2021/08/10 07:08:37;;;;;;;64.68;27.60;;;;;;;25.97;53.08;99613.53;5011538;28;20065;-77
2021/08/10 07:11:05;;;;;;;69.95;27.55;;;;;;;25.92;53.47;99620.34;5011431;28;20116;-74
2021/08/10 07:13:34;;;;;;;184.15;30.80;;;;;;;25.85;54.36;99620.41;4989393;28;20394;-73
2021/08/10 07:16:02;;;;;;;164.48;33.05;;;;;;;25.67;54.40;99602.88;4993880;28;20506;-74
2021/08/10 07:18:29;;;;;;;176.23;33.80;;;;;;;25.66;53.89;99602.09;4993127;28;20499;-76
2021/08/10 07:20:57;;;;;;;122.55;29.40;;;;;;;25.63;55.53;99607.69;5011127;28;20124;-75
2021/08/10 07:23:26;;;;;;;90.10;26.05;;;;;;;25.68;55.54;99613.66;5011148;28;20042;-75
2021/08/10 07:25:53;;;;;;;303.63;43.97;;;;;;;25.69;56.03;99617.25;5011035;28;20179;-77
2021/08/10 07:28:27;;;;;;;206.77;28.70;;;;;;;25.64;55.45;99609.31;4993076;28;20056;-77
2021/08/10 07:30:53;;;;;;;87.65;28.45;;;;;;;25.48;55.47;99602.16;5010702;28;20403;-81
2021/08/10 07:33:21;;;;;;;79.38;24.60;;;;;;;25.65;54.72;99614.47;4992786;28;20550;-76
2021/08/10 07:35:49;;;;;;;103.15;27.65;;;;;;;25.76;54.52;99612.44;4992426;28;20498;-78
2021/08/10 07:38:15;;;;;;;80.63;22.80;;;;;;;25.90;53.21;99617.19;4992426;28;20057;-77
2021/08/10 07:40:41;;;;;;;62.53;25.98;;;;;;;25.95;52.80;99622.34;5010351;28;20034;-75
2021/08/10 07:43:08;;;;;;;83.63;25.60;;;;;;;26.00;54.28;99607.91;4992163;28;20046;-89
2021/08/10 07:45:39;;;;;;;76.20;24.33;;;;;;;25.99;54.03;99606.31;5009030;28;20042;-76
2021/08/10 07:48:14;;;;;;;84.18;24.02;;;;;;;26.06;53.60;99601.84;5008554;28;20054;-76
2021/08/10 07:50:41;;;;;;;94.22;25.02;;;;;;;26.16;54.03;99596.19;4991377;28;20042;-79
2021/08/10 07:53:07;;;;;;;72.63;30.33;;;;;;;26.27;53.30;99610.13;5008580;28;20046;-75
2021/08/10 07:55:35;;;;;;;95.13;35.33;;;;;;;26.33;53.67;99616.09;5008491;28;20078;-75
2021/08/10 07:58:01;;;;;;;72.45;35.72;;;;;;;26.38;53.68;99602.41;4989961;28;20526;-76
2021/08/10 08:00:27;;;;;;;82.80;27.17;;;;;;;26.45;54.01;99602.34;5023614;28;20402;-84
2021/08/10 08:02:54;;;;;;;111.40;27.38;;;;;;;26.47;54.29;99599.97;4990303;28;20045;-77
2021/08/10 08:05:21;;;;;;;71.88;25.42;;;;;;;26.44;54.24;99597.16;4957710;28;20088;-78
2021/08/10 08:07:47;;;;;;;132.30;26.50;;;;;;;26.26;55.67;99597.31;5006754;28;20104;-78
2021/08/10 08:10:15;;;;;;;138.05;26.73;;;;;;;26.32;54.84;99594.84;5007494;28;20069;-77
2021/08/10 08:12:43;;;;;;;89.93;24.83;;;;;;;26.50;54.98;99589.94;4989612;28;20084;-76
2021/08/10 08:15:11;;;;;;;108.65;25.35;;;;;;;26.70;53.83;99593.75;4988959;28;20088;-78
2021/08/10 08:17:37;;;;;;;;;;;;;;;26.84;53.15;99586.38;5007146;28;20054;-81
2021/08/10 08:20:03;;;;;;;71.85;21.08;;;;;;;26.67;50.78;99572.13;4991250;28;19929;-79
2021/08/10 08:22:29;;;;;;;75.63;24.60;;;;;;;26.77;50.45;99580.88;4991165;28;20042;-80
2021/08/10 08:24:55;;;;;;;68.15;22.20;;;;;;;26.76;50.54;99580.06;5007385;28;20096;-82
2021/08/10 08:27:22;;;;;;;53.40;18.30;;;;;;;26.90;49.53;99591.13;5006041;28;20510;-80
2021/08/10 08:29:49;;;;;;;69.25;19.55;;;;;;;26.96;49.75;99587.88;5006066;28;20056;-80
2021/08/10 08:32:15;;;;;;;143.18;22.10;;;;;;;27.08;49.66;99584.50;5006233;28;20124;-80
2021/08/10 08:34:41;;;;;;;57.88;19.83;;;;;;;27.22;49.67;99598.44;5005656;28;20040;-79
2021/08/10 08:37:07;;;;;;;;;;;;;;;27.34;49.45;99591.44;5006885;28;20041;-79
2021/08/10 08:39:35;;;;;;;88.38;17.98;;;;;;;27.33;48.47;99578.63;5017446;28;20040;-78
2021/08/10 08:42:02;;;;;;;99.82;19.40;;;;;;;27.41;47.65;99585.75;4988906;28;20041;-79
2021/08/10 08:44:36;;;;;;;54.03;15.98;;;;;;;27.48;48.67;99590.47;4972385;28;20525;-80
2021/08/10 08:47:09;;;;;;;53.88;17.55;;;;;;;27.57;48.99;99594.34;4972278;28;20069;-80
2021/08/10 08:49:38;;;;;;;55.65;18.23;;;;;;;27.65;49.42;99595.06;4988454;28;20048;-80
2021/08/10 08:52:09;;;;;;;64.53;20.10;;;;;;;27.71;50.27;99592.56;4985931;28;20037;-77
2021/08/10 08:54:38;;;;;;;76.75;20.98;;;;;;;27.78;50.27;99593.31;4989027;28;20042;-75
2021/08/10 08:57:04;;;;;;;78.97;20.23;;;;;;;27.84;49.94;99599.22;5005417;28;20040;-75
2021/08/10 08:59:31;;;;;;;51.42;19.65;;;;;;;27.99;49.50;99603.44;5003832;28;20042;-75
2021/08/10 09:02:00;;;;;;;36.42;18.27;;;;;;;28.20;48.85;99599.47;4984019;28;20045;-75
2021/08/10 09:04:27;;;;;;;57.78;19.52;;;;;;;28.18;49.19;99593.50;4991737;28;20038;-76
2021/08/10 09:07:01;;;;;;;52.03;20.55;;;;;;;28.25;48.77;99590.56;5014234;28;20117;-76
2021/08/10 09:09:30;;;;;;;48.65;19.58;;;;;;;28.30;49.69;99595.69;5014153;28;20411;-77
2021/08/10 09:12:17;;;;;;;58.72;20.30;;;;;;;28.31;49.57;99602.94;5013980;28;20421;-77
2021/08/10 09:14:54;;;;;;;55.05;20.67;;;;;;;28.22;50.38;99599.06;4980122;28;20045;-74
2021/08/10 09:20:03;;;;;;;66.13;20.35;;;;;;;28.17;49.27;99593.91;5008111;28;20057;-78
2021/08/10 09:22:45;;;;;;;62.90;20.30;;;;;;;28.22;50.12;99596.25;5013790;28;20042;-81
2021/08/10 09:25:26;;;;;;;44.00;21.10;;;;;;;28.23;49.51;99593.00;4996226;28;20053;-78
2021/08/10 09:28:07;;;;;;;103.28;25.13;;;;;;;28.21;49.37;99600.28;4995232;28;20154;-77
2021/08/10 09:30:34;;;;;;;68.93;21.42;;;;;;;28.17;51.04;99585.47;5013300;28;20076;-77
2021/08/10 09:33:03;;;;;;;68.78;21.08;;;;;;;28.33;49.72;99606.09;5014427;28;20037;-78
2021/08/10 09:35:37;;;;;;;62.67;20.58;;;;;;;28.43;50.19;99597.94;5008667;28;20094;-77
2021/08/10 09:38:06;;;;;;;39.38;16.95;;;;;;;28.54;48.29;99609.78;5012355;28;20568;-77
2021/08/10 09:40:44;;;;;;;56.25;17.88;;;;;;;28.56;48.70;99613.78;5012431;28;20045;-87
2021/08/10 09:43:26;;;;;;;38.85;15.70;;;;;;;28.52;47.68;99601.78;5014596;28;20053;-76
2021/08/10 09:46:26;;;;;;;35.97;15.85;;;;;;;28.50;47.54;99609.84;5033309;28;20077;-77
2021/08/10 09:48:56;;;;;;;64.63;17.45;;;;;;;28.39;48.34;99588.75;5033208;28;20126;-80
2021/08/10 09:51:27;;;;;;;43.30;15.48;;;;;;;28.40;48.38;99587.53;5033378;28;20045;-80
2021/08/10 09:53:58;;;;;;;46.55;15.50;;;;;;;28.38;48.13;99598.38;5010821;28;20103;-80
2021/08/10 09:56:48;;;;;;;56.33;16.35;;;;;;;28.32;47.80;99586.84;4995541;28;20038;-78
2021/08/10 09:59:23;;;;;;;39.13;16.83;;;;;;;28.33;47.42;99582.81;4999878;28;20038;-80
2021/08/10 10:01:57;;;;;;;34.90;15.30;;;;;;;28.54;46.77;99598.53;4995639;28;20498;-81
2021/08/10 10:04:29;;;;;;;31.58;15.77;;;;;;;28.67;47.10;99596.69;5018636;28;20041;-81
2021/08/10 10:07:10;;;;;;;29.95;15.57;;;;;;;28.84;45.83;99596.81;4991501;28;20042;-80
2021/08/10 10:09:39;;;;;;;35.40;15.85;;;;;;;28.90;46.75;99595.09;4992145;28;20050;-80
2021/08/10 10:12:08;;;;;;;36.22;16.13;;;;;;;28.79;45.85;99581.22;4993224;28;20042;-79
2021/08/10 10:14:35;;;;;;;47.83;16.58;;;;;;;28.83;46.32;99587.56;5001165;28;20083;-79
2021/08/10 10:17:02;;;;;;;47.97;16.05;;;;;;;28.83;46.69;99589.59;5031998;28;20608;-79
2021/08/10 10:19:30;;;;;;;45.25;16.40;;;;;;;28.82;46.52;99588.81;5031972;28;20049;-78
2021/08/10 10:21:58;;;;;;;32.35;15.55;;;;;;;28.91;46.30;99597.47;5031488;28;20044;-82
2021/08/10 10:24:26;;;;;;;33.13;15.38;;;;;;;29.06;45.76;99605.66;5013861;28;20128;-86
2021/08/10 10:27:05;;;;;;;44.00;16.90;;;;;;;28.97;45.75;99589.31;5011098;28;20053;-80
2021/08/10 10:29:32;;;;;;;38.17;15.40;;;;;;;28.98;45.99;99607.81;5030567;28;20107;-78
2021/08/10 10:32:00;;;;;;;32.38;15.60;;;;;;;28.96;45.54;99596.97;5010666;28;20485;-78
2021/08/10 10:34:30;;;;;;;35.55;15.65;;;;;;;29.11;45.72;99608.00;5010733;28;20502;-80
2021/08/10 10:36:57;;;;;;;35.25;16.65;;;;;;;29.12;45.21;99606.75;5011413;28;20048;-78
2021/08/10 10:39:31;;;;;;;32.47;15.27;;;;;;;29.02;45.51;99612.16;5010021;28;20042;-77
2021/08/10 10:42:02;;;;;;;36.30;16.92;;;;;;;28.94;45.64;99613.50;4992512;28;20041;-79
2021/08/10 10:44:55;;;;;;;35.97;15.32;;;;;;;28.92;45.29;99623.59;5009872;28;20092;-77
2021/08/10 10:47:24;;;;;;;32.28;16.00;;;;;;;28.86;45.48;99619.69;5014561;28;20052;-77
2021/08/10 10:49:56;;;;;;;33.78;17.33;;;;;;;28.72;46.22;99613.09;4991641;28;20045;-78
2021/08/10 10:52:26;;;;;;;38.25;17.88;;;;;;;28.69;46.22;99608.31;5009124;28;20037;-79
2021/08/10 10:54:54;;;;;;;42.00;17.17;;;;;;;28.72;47.16;99609.50;5008980;28;20456;-80
2021/08/10 10:57:32;;;;;;;48.83;17.05;;;;;;;28.75;46.66;99612.25;5019487;28;20040;-79
2021/08/10 11:00:12;;;;;;;38.00;17.15;;;;;;;28.74;47.84;99615.47;5026390;28;20041;-80
2021/08/10 11:02:39;;;;;;;40.42;17.13;;;;;;;28.66;47.36;99606.38;5002703;28;20046;-79
2021/08/10 11:05:21;;;;;;;33.88;16.10;;;;;;;28.66;47.78;99608.41;5008013;28;20029;-79
2021/08/10 11:07:53;;;;;;;88.68;18.65;;;;;;;28.67;46.86;99605.13;5007693;28;20124;-80
2021/08/10 11:10:34;;;;;;;44.33;17.27;;;;;;;28.68;47.08;99601.13;5007282;28;20046;-77
2021/08/10 11:13:05;;;;;;;35.88;16.05;;;;;;;28.64;47.07;99596.75;5007124;28;20046;-75
2021/08/10 11:15:52;;;;;;;41.40;18.17;;;;;;;28.55;47.84;99591.72;5007295;28;20116;-76
2021/08/10 11:18:23;;;;;;;56.20;18.73;;;;;;;28.53;47.87;99574.47;5006635;28;20066;-76
2021/08/10 11:20:57;;;;;;;72.88;18.80;;;;;;;28.73;46.54;99589.34;5007545;28;20042;-77
2021/08/10 11:23:24;;;;;;;42.50;17.77;;;;;;;28.75;47.08;99588.94;5006418;28;20038;-77
2021/08/10 11:25:51;;;;;;;;;;;;;;;28.82;46.63;99597.25;5006826;28;20092;-77
2021/08/10 11:28:27;;;;;;;36.20;16.90;;;;;;;28.97;46.40;99604.19;5005683;28;19921;-76
2021/08/10 11:30:58;;;;;;;34.65;18.75;;;;;;;28.92;47.13;99590.63;5007241;28;20069;-83
2021/08/10 11:33:33;;;;;;;41.83;19.50;;;;;;;28.89;47.74;99602.72;5005943;28;20145;-76
2021/08/10 11:36:11;;;;;;;49.00;20.17;;;;;;;28.75;49.58;99609.44;5005493;28;20042;-77
2021/08/10 11:38:52;;;;;;;67.78;19.00;;;;;;;28.64;49.78;99602.38;5020052;28;20041;-76
2021/08/10 11:41:29;;;;;;;63.70;18.75;;;;;;;28.43;49.15;99589.50;5006045;28;20042;-77
2021/08/10 11:44:05;;;;;;;38.83;17.85;;;;;;;28.37;50.50;99594.00;5003595;28;20042;-76
2021/08/10 11:46:37;;;;;;;58.53;18.70;;;;;;;28.22;51.75;99594.25;5004272;28;20458;-81
2021/08/10 11:49:08;;;;;;;48.70;18.15;;;;;;;28.17;51.02;99597.50;4986348;28;20073;-75
2021/08/10 11:51:39;;;;;;;57.70;18.88;;;;;;;28.09;52.98;99598.88;4986570;28;20100;-77
2021/08/10 11:54:12;;;;;;;44.88;18.77;;;;;;;28.02;52.54;99596.16;5010397;28;20116;-77
2021/08/10 11:56:39;;;;;;;43.83;19.88;;;;;;;27.97;51.31;99611.47;5007698;28;20050;-77
2021/08/10 11:59:15;;;;;;;41.40;19.95;;;;;;;27.84;53.09;99602.03;5007465;28;20045;-77
2021/08/10 12:01:41;;;;;;;49.95;19.77;;;;;;;27.83;53.08;99604.06;5007604;28;20165;-76
2021/08/10 12:04:14;;;;;;;58.05;19.30;;;;;;;27.75;52.98;99598.91;5020306;28;20053;-77
2021/08/10 12:06:42;;;;;;;53.97;19.27;;;;;;;27.56;54.05;99584.34;5026400;28;20037;-77
2021/08/10 12:09:11;;;;;;;45.55;18.95;;;;;;;27.69;52.68;99607.03;5026363;28;20049;-77
2021/08/10 12:11:39;;;;;;;43.20;18.98;;;;;;;27.75;53.34;99610.97;5010370;28;20188;-77
2021/08/10 12:14:11;;;;;;;47.33;18.95;;;;;;;27.79;53.85;99611.75;5007061;28;20153;-78
2021/08/10 12:16:54;;;;;;;49.67;19.17;;;;;;;27.77;53.44;99619.00;5013150;28;20529;-77
2021/08/10 12:19:49;;;;;;;48.00;19.70;;;;;;;27.68;52.87;99621.50;5006379;28;20519;-77
2021/08/10 12:22:21;;;;;;;43.63;19.38;;;;;;;27.62;52.70;99615.56;5001974;28;20578;-78
2021/08/10 12:24:53;;;;;;;34.10;18.80;;;;;;;27.52;54.13;99620.13;4998964;28;20044;-77
2021/08/10 12:27:27;;;;;;;43.35;19.50;;;;;;;27.45;53.53;99608.16;5005226;28;20105;-78
2021/08/10 12:29:54;;;;;;;64.78;20.13;;;;;;;27.48;55.17;99627.75;4998294;28;20105;-77
2021/08/10 12:32:30;;;;;;;41.97;18.85;;;;;;;27.34;54.69;99613.91;4986801;28;20042;-77
2021/08/10 12:35:13;;;;;;;46.83;19.77;;;;;;;27.24;55.44;99620.44;4985755;28;20104;-77
2021/08/10 12:37:41;;;;;;;42.67;20.13;;;;;;;27.10;55.74;99619.38;5017288;28;20041;-77
2021/08/10 12:40:19;;;;;;;45.70;18.33;;;;;;;27.10;56.50;99629.81;5016182;28;20136;-77
2021/08/10 12:42:49;;;;;;;46.95;19.42;;;;;;;27.05;56.31;99627.44;4986479;28;20634;-76
2021/08/10 12:45:25;;;;;;;51.88;21.13;;;;;;;26.96;56.38;99621.53;5005193;28;20045;-77
2021/08/10 12:47:58;;;;;;;48.03;20.15;;;;;;;26.91;57.24;99629.19;5006748;28;20042;-78
2021/08/10 12:50:39;;;;;;;50.28;20.65;;;;;;;26.80;58.30;99631.31;5005076;28;20053;-78
2021/08/10 12:53:30;;;;;;;53.03;20.35;;;;;;;26.78;58.48;99633.72;5005163;28;20507;-77
2021/08/10 12:56:16;;;;;;;75.80;21.63;;;;;;;26.70;58.56;99635.81;5005210;28;20053;-76
2021/08/10 12:58:55;;;;;;;42.03;20.85;;;;;;;26.62;58.40;99644.69;5016403;28;20077;-77
2021/08/10 13:01:44;;;;;;;42.80;19.02;;;;;;;26.67;57.13;99644.25;5023577;28;20048;-85
2021/08/10 13:04:27;;;;;;;37.15;14.85;;;;;;;26.53;54.27;99650.78;5003026;28;20041;-79
2021/08/10 13:07:32;;;;;;;30.30;13.43;;;;;;;26.59;53.37;99657.56;4984471;28;20074;-77
2021/08/10 13:10:12;;;;;;;37.38;13.07;;;;;;;26.60;53.56;99661.16;4985106;28;20104;-78
2021/08/10 13:13:08;;;;;;;39.03;11.30;;;;;;;26.51;52.66;99653.19;4966476;28;20039;-78
2021/08/10 13:15:52;;;;;;;30.27;13.25;;;;;;;26.32;54.55;99639.69;4966873;28;20096;-78
2021/08/10 13:18:35;;;;;;;128.32;18.27;;;;;;;26.12;55.70;99650.66;4983489;28;20925;-80
2021/08/10 13:21:08;;;;;;;921.67;99.40;;;;;;;26.09;56.70;99655.06;4983712;28;20057;-77
2021/08/10 13:23:43;;;;;;;348.23;37.58;;;;;;;25.83;58.98;99653.66;4981748;28;20042;-78
2021/08/10 13:26:15;;;;;;;950.22;98.45;;;;;;;25.58;61.83;99650.91;5000632;28;20046;-77
2021/08/10 13:28:56;;;;;;;574.95;56.78;;;;;;;25.69;59.74;99656.47;5000730;28;20042;-77
2021/08/10 13:31:33;;;;;;;521.90;55.47;;;;;;;25.51;63.31;99642.56;5001352;28;20129;-77
2021/08/10 13:34:09;;;;;;;272.50;33.83;;;;;;;25.21;63.04;99645.88;5000099;28;20038;-77
2021/08/10 13:36:40;;;;;;;122.57;25.98;;;;;;;25.17;64.34;99657.06;4982455;28;20455;-78
2021/08/10 13:39:11;;;;;;;81.82;22.08;;;;;;;24.93;66.27;99647.47;4947430;28;20459;-83
2021/08/10 13:41:40;;;;;;;66.20;23.92;;;;;;;24.77;66.99;99642.31;4981024;28;20061;-84
2021/08/10 13:44:12;;;;;;;71.63;22.45;;;;;;;24.73;66.48;99647.09;4985788;28;20031;-76
2021/08/10 13:46:42;;;;;;;64.70;25.15;;;;;;;24.73;66.50;99638.72;4977979;28;20078;-77
2021/08/10 13:49:11;;;;;;;83.25;26.30;;;;;;;24.75;66.03;99632.72;4975750;28;20042;-77
2021/08/10 13:51:43;;;;;;;62.45;22.17;;;;;;;24.48;66.61;99632.34;4986629;28;20041;-75
2021/08/10 13:54:14;;;;;;;69.32;20.88;;;;;;;24.41;66.71;99632.38;4994289;28;20048;-75
2021/08/10 13:56:41;;;;;;;50.75;21.15;;;;;;;24.35;66.63;99645.91;4989967;28;20046;-76
2021/08/10 13:59:08;;;;;;;50.53;21.73;;;;;;;24.41;68.51;99663.91;5004811;28;20108;-74
2021/08/10 14:01:46;;;;;;;62.70;23.95;;;;;;;24.12;70.75;99649.84;4999389;28;20121;-75
2021/08/10 14:04:13;;;;;;;57.55;24.17;;;;;;;24.00;71.07;99647.44;4978091;28;20046;-77
2021/08/10 14:06:39;;;;;;;53.75;23.92;;;;;;;23.98;70.99;99655.41;4976951;28;20031;-77
2021/08/10 14:09:06;;;;;;;61.65;23.83;;;;;;;23.99;70.79;99661.78;4991708;28;20070;-75
2021/08/10 14:11:32;;;;;;;66.57;27.55;;;;;;;24.00;71.71;99652.22;4997313;28;20039;-74
2021/08/10 14:13:58;;;;;;;70.28;26.55;;;;;;;23.90;70.44;99640.63;4993202;28;20503;-73
2021/08/10 14:16:24;;;;;;;59.28;26.30;;;;;;;23.87;69.80;99638.66;4993047;28;20050;-75
2021/08/10 14:18:51;;;;;;;70.80;29.60;;;;;;;23.66;70.94;99639.34;4992856;28;20513;-79
2021/08/10 14:21:18;;;;;;;78.50;30.83;;;;;;;23.57;71.77;99640.88;4994084;28;20042;-75
2021/08/10 14:23:44;;;;;;;71.18;30.55;;;;;;;23.62;71.62;99637.72;4993420;28;20523;-76
2021/08/10 14:26:11;;;;;;;63.78;27.80;;;;;;;23.67;70.91;99632.56;4992570;28;20076;-75
2021/08/10 14:28:37;;;;;;;59.33;25.20;;;;;;;23.66;70.82;99632.97;4972596;28;20511;-75
2021/08/10 14:31:05;;;;;;;46.10;21.48;;;;;;;23.78;70.72;99634.63;4990135;28;20538;-75
2021/08/10 14:33:33;;;;;;;34.05;18.38;;;;;;;23.78;70.92;99621.47;4992877;28;20089;-82
2021/08/10 14:35:59;;;;;;;32.22;17.63;;;;;;;23.84;71.09;99633.03;4970184;28;20035;-78
2021/08/10 14:38:26;;;;;;;41.28;17.83;;;;;;;23.85;70.90;99620.69;4972627;28;20049;-75
2021/08/10 14:40:52;;;;;;;48.65;21.00;;;;;;;23.92;69.71;99623.50;4976835;28;20058;-76
2021/08/10 14:43:18;;;;;;;44.60;18.80;;;;;;;24.00;70.01;99625.09;4974903;28;20142;-78
2021/08/10 14:45:45;;;;;;;40.42;17.52;;;;;;;23.93;68.82;99627.88;4971330;28;20534;-75
2021/08/10 14:48:12;;;;;;;31.50;17.98;;;;;;;24.00;69.55;99632.66;4980946;28;20449;-80
2021/08/10 14:50:38;;;;;;;26.05;13.40;;;;;;;23.96;67.31;99615.91;4973214;28;20038;-76
2021/08/10 14:53:05;;;;;;;29.75;14.40;;;;;;;24.01;68.27;99626.69;4970617;28;20193;-75
2021/08/10 14:55:35;;;;;;;32.50;13.80;;;;;;;23.97;67.50;99630.66;4970001;28;20079;-75
2021/08/10 14:58:02;;;;;;;29.35;13.65;;;;;;;23.95;67.16;99627.50;4969447;28;20396;-78
2021/08/10 15:00:28;;;;;;;26.63;14.10;;;;;;;23.95;67.79;99633.06;4970753;28;20046;-79
2021/08/10 15:02:55;;;;;;;41.38;14.93;;;;;;;23.91;67.62;99649.81;4969830;28;20048;-79
2021/08/10 15:05:22;;;;;;;31.50;15.57;;;;;;;23.88;68.39;99650.59;4972874;28;20049;-79
2021/08/10 15:07:49;;;;;;;31.65;15.35;;;;;;;23.75;67.55;99635.41;4970847;28;20129;-80
2021/08/10 15:10:16;;;;;;;30.27;14.10;;;;;;;23.88;67.00;99659.78;4971704;28;20060;-78
2021/08/10 15:12:42;;;;;;;30.35;16.02;;;;;;;23.87;67.86;99660.16;4968997;28;20042;-79
2021/08/10 15:15:10;;;;;;;33.90;15.23;;;;;;;23.81;69.35;99662.56;4968651;28;20127;-84
2021/08/10 15:17:41;;;;;;;27.58;14.88;;;;;;;23.81;68.11;99656.97;4971159;28;20034;-81
2021/08/10 15:20:09;;;;;;;31.83;15.52;;;;;;;23.84;68.59;99664.56;4967562;28;20042;-80
2021/08/10 15:22:36;;;;;;;34.45;16.25;;;;;;;23.78;68.88;99665.34;4967668;28;20038;-78
2021/08/10 15:25:05;;;;;;;29.92;15.32;;;;;;;23.64;68.43;99650.13;4968833;28;20420;-79
2021/08/10 15:27:33;;;;;;;28.75;14.20;;;;;;;23.71;67.42;99670.88;4951307;28;20499;-77
2021/08/10 15:30:00;;;;;;;35.95;15.60;;;;;;;23.68;68.43;99664.91;4965015;28;20110;-78
2021/08/10 15:32:26;;;;;;;33.05;16.00;;;;;;;23.66;68.11;99683.19;4967196;28;20069;-78
2021/08/10 15:34:53;;;;;;;34.25;16.52;;;;;;;23.59;68.32;99667.22;4952191;28;20050;-77
2021/08/10 15:37:19;;;;;;;35.08;15.60;;;;;;;23.52;68.76;99660.81;4967291;28;20097;-78
2021/08/10 15:39:46;;;;;;;31.95;16.67;;;;;;;23.55;68.92;99658.03;4972780;28;20134;-81
2021/08/10 15:42:12;;;;;;;29.13;17.63;;;;;;;23.62;69.06;99668.44;4966509;28;20128;-77
2021/08/10 15:44:38;;;;;;;40.67;18.73;;;;;;;23.60;69.47;99674.41;4966121;28;20059;-77
2021/08/10 15:47:07;;;;;;;39.58;18.63;;;;;;;23.51;69.45;99662.00;4965859;28;20038;-77
2021/08/10 15:49:33;;;;;;;32.97;16.95;;;;;;;23.56;68.87;99670.78;4965968;28;20130;-78
2021/08/10 15:51:59;;;;;;;33.88;16.95;;;;;;;23.54;69.93;99670.41;4965672;28;20503;-78
2021/08/10 15:54:27;;;;;;;39.80;17.73;;;;;;;23.49;69.63;99667.97;4951859;28;20055;-78
2021/08/10 15:56:53;;;;;;;42.85;16.98;;;;;;;23.53;69.78;99682.75;4965409;28;20066;-80
2021/08/10 15:59:19;;;;;;;;;;;;;;;23.55;70.25;99685.16;4962997;28;20130;-82
2021/08/10 16:01:45;;;;;;;38.83;18.73;;;;;;;23.47;70.46;99678.72;4965043;28;20347;-81
2021/08/10 16:04:12;;;;;;;;;;;;;;;23.51;68.72;99681.53;4949236;28;20034;-78
2021/08/10 16:06:38;;;;;;;;;;;;;;;23.46;69.44;99682.72;4965948;28;19972;-78
2021/08/10 16:09:05;;;;;;;48.75;20.70;;;;;;;23.32;69.43;99665.91;4967842;28;19922;-81
2021/08/10 16:11:34;;;;;;;61.33;21.55;;;;;;;23.40;70.01;99681.47;4964105;28;20134;-82
2021/08/10 16:14:01;;;;;;;45.00;19.80;;;;;;;23.37;69.58;99680.25;4966551;28;20042;-76
2021/08/10 16:16:28;;;;;;;;;;;;;;;23.35;69.27;99677.09;4964746;28;20039;-84
2021/08/10 16:18:54;;;;;;;49.13;19.77;;;;;;;23.32;69.04;99679.84;4963253;28;19922;-81
2021/08/10 16:21:20;;;;;;;65.72;20.58;;;;;;;23.27;68.70;99669.84;4965287;28;20058;-80
2021/08/10 16:23:47;;;;;;;56.33;20.77;;;;;;;23.18;69.54;99667.44;4962711;28;20050;-78
2021/08/10 16:26:13;;;;;;;54.85;20.48;;;;;;;23.18;69.23;99673.00;4963788;28;20038;-77
2021/08/10 16:28:40;;;;;;;74.63;22.02;;;;;;;23.14;69.06;99669.38;4970619;28;20054;-76
2021/08/10 16:31:06;;;;;;;;;;;;;;;23.12;69.81;99674.56;4969319;28;20050;-77
2021/08/10 16:33:34;;;;;;;65.03;20.33;;;;;;;23.03;69.98;99667.72;4988970;28;20020;-75
2021/08/10 16:36:03;;;;;;;59.72;21.10;;;;;;;23.04;70.35;99675.69;4982595;28;20042;-79
2021/08/10 16:38:32;;;;;;;58.60;22.42;;;;;;;22.98;70.75;99669.69;4970345;28;20038;-77
2021/08/10 16:40:58;;;;;;;66.45;24.42;;;;;;;22.96;70.68;99662.91;5003395;28;20919;-78
2021/08/10 16:43:26;;;;;;;59.72;23.30;;;;;;;22.92;70.87;99687.16;4995335;28;20037;-76
2021/08/10 16:45:52;;;;;;;78.28;23.75;;;;;;;22.87;70.56;99673.56;4966980;28;20069;-76
2021/08/10 16:48:19;;;;;;;73.63;26.05;;;;;;;22.77;71.01;99660.34;4983228;28;20303;-77
2021/08/10 16:50:46;;;;;;;57.25;26.98;;;;;;;22.79;71.50;99675.50;4983005;28;20056;-76
2021/08/10 16:53:12;;;;;;;71.45;26.33;;;;;;;22.75;71.24;99671.88;4983305;28;20065;-82
2021/08/10 16:55:39;;;;;;;56.95;23.50;;;;;;;22.67;71.52;99662.66;4986102;28;20050;-76
2021/08/10 16:58:06;;;;;;;48.22;23.38;;;;;;;22.77;71.44;99665.91;4997707;28;20045;-76
2021/08/10 17:00:33;;;;;;;58.63;25.48;;;;;;;22.74;71.31;99664.69;4982923;28;20057;-76
2021/08/10 17:03:00;;;;;;;72.30;26.80;;;;;;;22.71;71.86;99657.09;4995255;28;20549;-75
2021/08/10 17:05:27;;;;;;;54.30;27.60;;;;;;;22.70;71.81;99661.09;4987718;28;20043;-79